Hill City, MN (55748)

6:14 AM CDT on July 25, 2016 (GMT -0500)
Sunny Beach Road | | Change Station

Elev 1280 ft 47.16 °N, 93.52 °W | Updated 15 minutes ago

Clear
Clear
63.5 °F
Feels Like 63.5 °F
N
0.0
Wind Variable Wind from South

Today
High -- | Low -- °F
--% Chance of Precip.
Yesterday
High -- | Low -- °F
Precip. -- in
Pressure 30.02 in
Visibility 8.0 miles
Clouds Clear
Dew Point 60 °F
Humidity 90%
Rainfall 0.00 in
Snow Depth Not available.
5:46 AM 8:55 PM
Waning Gibbous, 67% visible
METAR KGPZ 251056Z AUTO 28003KT 8SM CLR 16/15 A3002 RMK AO2 SLP164 T01560150
Pressure 30.02 in
Visibility 8.0 miles
Clouds Clear
Dew Point 60 °F
Humidity 90%
Rainfall 0.00 in
Snow Depth Not available.
5:46 AM 8:55 PM
Waning Gibbous, 67% visible
METAR KGPZ 251056Z AUTO 28003KT 8SM CLR 16/15 A3002 RMK AO2 SLP164 T01560150

10-Day Weather Forecast

Almanac

Astronomy

Jul. 25, 2016 Rise Set
Actual Time
Civil Twilight
Nautical Twilight
Astronomical Twilight
Moon
Length of Visible Light
Length of Day
Tomorrow will be .
, % of the Moon is Illuminated

Today's Extremes

State Highs State Lows

Community

WunderPhotos

Upload Photos

1,927,291 photos uploaded!

WunderBlog® & News

Nearby

Air Quality

  Air Quality AQ Index Pollutant
Not available.

Snow Depth

Station Depth Elevation

Earthquake Activity

City Distance Mag. Time & Date
Minimum magnitude displayed is 2.5.

Coastal Water Temperatures

Place Temperature

Stations

Nearby Weather Stations

Station Location Temp. Windchill Dew Point Humidity Wind Precip. Elev Updated Type
                   

Watches & Warnings

There are currently no watches in effect.